sensor_id;sensor_type;location;lat;lon;timestamp;temperature;humidity
52849;DHT22;38714;53.180;5.812;2022-12-26T00:01:53;8.00;99.90
52849;DHT22;38714;53.180;5.812;2022-12-26T00:04:19;8.00;99.90
52849;DHT22;38714;53.180;5.812;2022-12-26T00:06:45;8.00;99.90
52849;DHT22;38714;53.180;5.812;2022-12-26T00:09:11;8.00;99.90
52849;DHT22;38714;53.180;5.812;2022-12-26T00:11:36;8.00;99.90
52849;DHT22;38714;53.180;5.812;2022-12-26T00:14:05;8.00;99.90
52849;DHT22;38714;53.180;5.812;2022-12-26T00:16:32;8.00;99.90
52849;DHT22;38714;53.180;5.812;2022-12-26T00:18:57;8.00;99.90
52849;DHT22;38714;53.180;5.812;2022-12-26T00:21:23;8.00;99.90
52849;DHT22;38714;53.180;5.812;2022-12-26T00:23:52;8.00;99.90
52849;DHT22;38714;53.180;5.812;2022-12-26T00:26:19;8.00;99.90
52849;DHT22;38714;53.180;5.812;2022-12-26T00:28:45;8.00;99.90
52849;DHT22;38714;53.180;5.812;2022-12-26T00:31:17;8.00;99.90
52849;DHT22;38714;53.180;5.812;2022-12-26T00:33:43;8.00;99.90
52849;DHT22;38714;53.180;5.812;2022-12-26T00:36:14;8.00;99.90
52849;DHT22;38714;53.180;5.812;2022-12-26T00:38:41;8.00;99.90
52849;DHT22;38714;53.180;5.812;2022-12-26T00:41:08;8.00;99.90
52849;DHT22;38714;53.180;5.812;2022-12-26T00:43:34;8.00;99.90
52849;DHT22;38714;53.180;5.812;2022-12-26T00:46:00;7.90;99.90
52849;DHT22;38714;53.180;5.812;2022-12-26T00:48:25;8.00;99.90
52849;DHT22;38714;53.180;5.812;2022-12-26T00:50:51;8.00;99.90
52849;DHT22;38714;53.180;5.812;2022-12-26T00:53:17;8.00;99.90
52849;DHT22;38714;53.180;5.812;2022-12-26T00:55:43;7.90;99.90
52849;DHT22;38714;53.180;5.812;2022-12-26T00:58:09;8.00;99.90
52849;DHT22;38714;53.180;5.812;2022-12-26T01:00:35;8.00;99.90
52849;DHT22;38714;53.180;5.812;2022-12-26T01:03:01;8.00;99.90
52849;DHT22;38714;53.180;5.812;2022-12-26T01:05:27;8.00;99.90
52849;DHT22;38714;53.180;5.812;2022-12-26T01:07:53;8.00;99.90
52849;DHT22;38714;53.180;5.812;2022-12-26T01:10:19;8.00;99.90
52849;DHT22;38714;53.180;5.812;2022-12-26T01:12:44;8.00;99.90
52849;DHT22;38714;53.180;5.812;2022-12-26T01:15:10;8.00;99.90
52849;DHT22;38714;53.180;5.812;2022-12-26T01:17:35;8.00;99.90
52849;DHT22;38714;53.180;5.812;2022-12-26T01:20:02;8.00;99.90
52849;DHT22;38714;53.180;5.812;2022-12-26T01:22:28;8.00;99.90
52849;DHT22;38714;53.180;5.812;2022-12-26T01:24:54;8.00;99.90
52849;DHT22;38714;53.180;5.812;2022-12-26T01:27:20;8.00;99.90
52849;DHT22;38714;53.180;5.812;2022-12-26T01:29:46;8.00;99.90
52849;DHT22;38714;53.180;5.812;2022-12-26T01:32:11;8.00;99.90
52849;DHT22;38714;53.180;5.812;2022-12-26T01:34:37;8.00;99.90
52849;DHT22;38714;53.180;5.812;2022-12-26T01:37:02;8.00;99.90
52849;DHT22;38714;53.180;5.812;2022-12-26T01:39:28;8.10;99.90
52849;DHT22;38714;53.180;5.812;2022-12-26T01:41:54;8.00;99.90
52849;DHT22;38714;53.180;5.812;2022-12-26T01:47:26;8.00;99.90
52849;DHT22;38714;53.180;5.812;2022-12-26T01:49:55;8.00;99.90
52849;DHT22;38714;53.180;5.812;2022-12-26T01:52:32;8.00;99.90
52849;DHT22;38714;53.180;5.812;2022-12-26T01:54:59;8.10;99.90
52849;DHT22;38714;53.180;5.812;2022-12-26T01:57:32;8.00;99.90
52849;DHT22;38714;53.180;5.812;2022-12-26T02:00:00;8.10;99.90
52849;DHT22;38714;53.180;5.812;2022-12-26T02:02:28;8.10;99.90
52849;DHT22;38714;53.180;5.812;2022-12-26T02:04:55;8.10;99.90
52849;DHT22;38714;53.180;5.812;2022-12-26T02:07:43;8.10;99.90
52849;DHT22;38714;53.180;5.812;2022-12-26T02:10:16;8.10;99.90
52849;DHT22;38714;53.180;5.812;2022-12-26T02:12:44;8.10;99.90
52849;DHT22;38714;53.180;5.812;2022-12-26T02:15:12;8.10;99.90
52849;DHT22;38714;53.180;5.812;2022-12-26T02:17:39;8.10;99.90
52849;DHT22;38714;53.180;5.812;2022-12-26T02:20:12;8.10;99.90
52849;DHT22;38714;53.180;5.812;2022-12-26T02:44:24;8.20;99.90
52849;DHT22;38714;53.180;5.812;2022-12-26T02:47:37;8.20;99.90
52849;DHT22;38714;53.180;5.812;2022-12-26T02:50:19;8.20;99.90
52849;DHT22;38714;53.180;5.812;2022-12-26T02:53:27;8.20;99.90
52849;DHT22;38714;53.180;5.812;2022-12-26T02:56:31;8.20;99.90
52849;DHT22;38714;53.180;5.812;2022-12-26T02:59:19;8.20;99.90
52849;DHT22;38714;53.180;5.812;2022-12-26T03:02:07;8.20;99.90
52849;DHT22;38714;53.180;5.812;2022-12-26T03:04:55;8.20;99.90
52849;DHT22;38714;53.180;5.812;2022-12-26T03:07:42;8.30;99.90
52849;DHT22;38714;53.180;5.812;2022-12-26T03:10:30;8.20;99.90
52849;DHT22;38714;53.180;5.812;2022-12-26T03:13:19;8.20;99.90
52849;DHT22;38714;53.180;5.812;2022-12-26T03:16:00;8.30;99.90
52849;DHT22;38714;53.180;5.812;2022-12-26T03:18:52;8.30;99.90
52849;DHT22;38714;53.180;5.812;2022-12-26T03:21:24;8.30;99.90
52849;DHT22;38714;53.180;5.812;2022-12-26T03:23:52;8.40;99.90
52849;DHT22;38714;53.180;5.812;2022-12-26T03:26:30;8.30;99.90
52849;DHT22;38714;53.180;5.812;2022-12-26T03:29:26;8.30;99.90
52849;DHT22;38714;53.180;5.812;2022-12-26T03:32:11;8.30;99.90
52849;DHT22;38714;53.180;5.812;2022-12-26T03:34:41;8.30;99.90
52849;DHT22;38714;53.180;5.812;2022-12-26T03:37:32;8.30;99.90
52849;DHT22;38714;53.180;5.812;2022-12-26T03:43:43;8.30;99.90
52849;DHT22;38714;53.180;5.812;2022-12-26T03:46:45;8.20;99.90
52849;DHT22;38714;53.180;5.812;2022-12-26T03:49:48;8.20;99.90
52849;DHT22;38714;53.180;5.812;2022-12-26T03:52:47;8.20;99.90
52849;DHT22;38714;53.180;5.812;2022-12-26T03:58:50;8.20;99.90
52849;DHT22;38714;53.180;5.812;2022-12-26T04:01:38;8.20;99.90
52849;DHT22;38714;53.180;5.812;2022-12-26T04:04:26;8.30;99.90
52849;DHT22;38714;53.180;5.812;2022-12-26T04:07:20;8.20;99.90
52849;DHT22;38714;53.180;5.812;2022-12-26T04:10:10;8.20;99.90
52849;DHT22;38714;53.180;5.812;2022-12-26T04:12:57;8.20;99.90
52849;DHT22;38714;53.180;5.812;2022-12-26T04:15:47;8.20;99.90
52849;DHT22;38714;53.180;5.812;2022-12-26T04:18:42;8.20;99.90
52849;DHT22;38714;53.180;5.812;2022-12-26T04:21:41;8.20;99.90
52849;DHT22;38714;53.180;5.812;2022-12-26T04:24:31;8.20;99.90
52849;DHT22;38714;53.180;5.812;2022-12-26T04:27:18;8.20;99.90
52849;DHT22;38714;53.180;5.812;2022-12-26T04:30:04;8.20;99.90
52849;DHT22;38714;53.180;5.812;2022-12-26T04:32:49;8.20;99.90
52849;DHT22;38714;53.180;5.812;2022-12-26T04:35:44;8.20;99.90
52849;DHT22;38714;53.180;5.812;2022-12-26T04:38:35;8.20;99.90
52849;DHT22;38714;53.180;5.812;2022-12-26T04:41:22;8.20;99.90
52849;DHT22;38714;53.180;5.812;2022-12-26T04:44:07;8.20;99.90
52849;DHT22;38714;53.180;5.812;2022-12-26T04:46:36;8.20;99.90
52849;DHT22;38714;53.180;5.812;2022-12-26T04:49:05;8.20;99.90
52849;DHT22;38714;53.180;5.812;2022-12-26T04:51:50;8.20;99.90
52849;DHT22;38714;53.180;5.812;2022-12-26T04:54:16;8.20;99.90
52849;DHT22;38714;53.180;5.812;2022-12-26T04:56:42;8.20;99.90
52849;DHT22;38714;53.180;5.812;2022-12-26T04:59:08;8.20;99.90
52849;DHT22;38714;53.180;5.812;2022-12-26T05:01:34;8.20;99.90
52849;DHT22;38714;53.180;5.812;2022-12-26T05:04:18;8.20;99.90
52849;DHT22;38714;53.180;5.812;2022-12-26T05:07:04;8.20;99.90
52849;DHT22;38714;53.180;5.812;2022-12-26T05:09:51;8.10;99.90
52849;DHT22;38714;53.180;5.812;2022-12-26T05:12:17;8.10;99.90
52849;DHT22;38714;53.180;5.812;2022-12-26T05:14:43;8.10;99.90
52849;DHT22;38714;53.180;5.812;2022-12-26T05:17:13;8.10;99.90
52849;DHT22;38714;53.180;5.812;2022-12-26T05:19:57;8.10;99.90
52849;DHT22;38714;53.180;5.812;2022-12-26T05:22:43;8.10;99.90
52849;DHT22;38714;53.180;5.812;2022-12-26T05:25:31;8.10;99.90
52849;DHT22;38714;53.180;5.812;2022-12-26T05:28:17;8.00;99.90
52849;DHT22;38714;53.180;5.812;2022-12-26T05:31:02;8.10;99.90
52849;DHT22;38714;53.180;5.812;2022-12-26T05:33:28;8.10;99.90
52849;DHT22;38714;53.180;5.812;2022-12-26T05:36:13;8.10;99.90
52849;DHT22;38714;53.180;5.812;2022-12-26T05:38:39;8.10;99.90
52849;DHT22;38714;53.180;5.812;2022-12-26T05:41:05;8.00;99.90
52849;DHT22;38714;53.180;5.812;2022-12-26T05:43:31;8.00;99.90
52849;DHT22;38714;53.180;5.812;2022-12-26T05:45:57;8.10;99.90
52849;DHT22;38714;53.180;5.812;2022-12-26T05:48:22;8.00;99.90
52849;DHT22;38714;53.180;5.812;2022-12-26T05:50:48;8.10;99.90
52849;DHT22;38714;53.180;5.812;2022-12-26T05:53:13;8.00;99.90
52849;DHT22;38714;53.180;5.812;2022-12-26T05:55:39;8.10;99.90
52849;DHT22;38714;53.180;5.812;2022-12-26T05:58:05;8.10;99.90
52849;DHT22;38714;53.180;5.812;2022-12-26T06:00:31;8.10;99.90
52849;DHT22;38714;53.180;5.812;2022-12-26T06:02:58;8.10;99.90
52849;DHT22;38714;53.180;5.812;2022-12-26T06:05:24;8.10;99.90
52849;DHT22;38714;53.180;5.812;2022-12-26T06:07:49;8.10;99.90
52849;DHT22;38714;53.180;5.812;2022-12-26T06:10:15;8.10;99.90
52849;DHT22;38714;53.180;5.812;2022-12-26T06:12:41;8.10;99.90
52849;DHT22;38714;53.180;5.812;2022-12-26T06:15:07;8.20;99.90
52849;DHT22;38714;53.180;5.812;2022-12-26T06:17:32;8.10;99.90
52849;DHT22;38714;53.180;5.812;2022-12-26T06:19:58;8.20;99.90
52849;DHT22;38714;53.180;5.812;2022-12-26T06:22:23;8.20;99.90
52849;DHT22;38714;53.180;5.812;2022-12-26T06:24:49;8.20;99.90
52849;DHT22;38714;53.180;5.812;2022-12-26T06:27:15;8.20;99.90
52849;DHT22;38714;53.180;5.812;2022-12-26T06:29:41;8.20;99.90
52849;DHT22;38714;53.180;5.812;2022-12-26T06:32:06;8.20;99.90
52849;DHT22;38714;53.180;5.812;2022-12-26T06:34:32;8.20;99.90
52849;DHT22;38714;53.180;5.812;2022-12-26T06:36:57;8.20;99.90
52849;DHT22;38714;53.180;5.812;2022-12-26T06:39:23;8.10;99.90
52849;DHT22;38714;53.180;5.812;2022-12-26T06:41:49;8.10;99.90
52849;DHT22;38714;53.180;5.812;2022-12-26T06:44:14;8.10;99.90
52849;DHT22;38714;53.180;5.812;2022-12-26T06:46:40;8.00;99.90
52849;DHT22;38714;53.180;5.812;2022-12-26T06:49:05;8.00;99.90
52849;DHT22;38714;53.180;5.812;2022-12-26T06:51:32;8.00;99.90
52849;DHT22;38714;53.180;5.812;2022-12-26T06:53:58;8.00;99.90
52849;DHT22;38714;53.180;5.812;2022-12-26T06:56:25;8.00;99.90
52849;DHT22;38714;53.180;5.812;2022-12-26T06:59:10;8.00;99.90
52849;DHT22;38714;53.180;5.812;2022-12-26T07:01:36;8.00;99.90
52849;DHT22;38714;53.180;5.812;2022-12-26T07:04:01;8.00;99.90
52849;DHT22;38714;53.180;5.812;2022-12-26T07:06:32;8.00;99.90
52849;DHT22;38714;53.180;5.812;2022-12-26T07:09:04;8.00;99.90
52849;DHT22;38714;53.180;5.812;2022-12-26T07:11:33;8.00;99.90
52849;DHT22;38714;53.180;5.812;2022-12-26T07:13:59;7.90;99.90
52849;DHT22;38714;53.180;5.812;2022-12-26T07:16:25;7.90;99.90
52849;DHT22;38714;53.180;5.812;2022-12-26T07:18:52;7.80;99.90
52849;DHT22;38714;53.180;5.812;2022-12-26T07:21:18;7.90;99.90
52849;DHT22;38714;53.180;5.812;2022-12-26T07:23:43;7.80;99.90
52849;DHT22;38714;53.180;5.812;2022-12-26T07:26:09;7.80;99.90
52849;DHT22;38714;53.180;5.812;2022-12-26T07:28:35;7.80;99.90
52849;DHT22;38714;53.180;5.812;2022-12-26T07:31:01;7.80;99.90
52849;DHT22;38714;53.180;5.812;2022-12-26T07:33:27;7.80;99.90
52849;DHT22;38714;53.180;5.812;2022-12-26T07:35:53;7.80;99.90
52849;DHT22;38714;53.180;5.812;2022-12-26T07:38:18;7.70;99.90
52849;DHT22;38714;53.180;5.812;2022-12-26T07:40:44;7.70;99.90
52849;DHT22;38714;53.180;5.812;2022-12-26T07:43:10;7.70;99.90
52849;DHT22;38714;53.180;5.812;2022-12-26T07:45:35;7.70;99.90
52849;DHT22;38714;53.180;5.812;2022-12-26T07:48:01;7.70;99.90
52849;DHT22;38714;53.180;5.812;2022-12-26T07:50:27;7.70;99.90
52849;DHT22;38714;53.180;5.812;2022-12-26T07:52:54;7.70;99.90
52849;DHT22;38714;53.180;5.812;2022-12-26T07:55:20;7.70;99.90
52849;DHT22;38714;53.180;5.812;2022-12-26T07:57:50;7.70;99.90
52849;DHT22;38714;53.180;5.812;2022-12-26T08:00:16;7.80;99.90
52849;DHT22;38714;53.180;5.812;2022-12-26T08:02:43;7.80;99.90
52849;DHT22;38714;53.180;5.812;2022-12-26T08:05:09;7.80;99.90
52849;DHT22;38714;53.180;5.812;2022-12-26T08:07:35;7.80;99.90
52849;DHT22;38714;53.180;5.812;2022-12-26T08:10:00;7.80;99.90
52849;DHT22;38714;53.180;5.812;2022-12-26T08:12:26;7.80;99.90
52849;DHT22;38714;53.180;5.812;2022-12-26T08:14:52;7.90;99.90
52849;DHT22;38714;53.180;5.812;2022-12-26T08:17:17;7.90;99.90
52849;DHT22;38714;53.180;5.812;2022-12-26T08:19:43;7.90;99.90
52849;DHT22;38714;53.180;5.812;2022-12-26T08:22:09;7.90;99.90
52849;DHT22;38714;53.180;5.812;2022-12-26T08:24:34;7.90;99.90
52849;DHT22;38714;53.180;5.812;2022-12-26T08:27:00;8.00;99.90
52849;DHT22;38714;53.180;5.812;2022-12-26T08:29:26;8.00;99.90
52849;DHT22;38714;53.180;5.812;2022-12-26T08:31:52;8.00;99.90
52849;DHT22;38714;53.180;5.812;2022-12-26T08:34:17;8.00;99.90
52849;DHT22;38714;53.180;5.812;2022-12-26T08:36:43;8.10;99.90
52849;DHT22;38714;53.180;5.812;2022-12-26T08:39:08;8.10;99.90
52849;DHT22;38714;53.180;5.812;2022-12-26T08:41:34;8.00;99.90
52849;DHT22;38714;53.180;5.812;2022-12-26T08:44:00;8.10;99.90
52849;DHT22;38714;53.180;5.812;2022-12-26T08:46:25;8.00;99.90
52849;DHT22;38714;53.180;5.812;2022-12-26T08:48:51;8.10;99.90
52849;DHT22;38714;53.180;5.812;2022-12-26T08:51:22;8.00;99.90
52849;DHT22;38714;53.180;5.812;2022-12-26T08:53:48;8.00;99.90
52849;DHT22;38714;53.180;5.812;2022-12-26T08:56:23;8.00;99.90
52849;DHT22;38714;53.180;5.812;2022-12-26T08:58:49;8.00;99.90
52849;DHT22;38714;53.180;5.812;2022-12-26T09:01:17;8.00;99.90
52849;DHT22;38714;53.180;5.812;2022-12-26T09:03:43;8.00;99.90
52849;DHT22;38714;53.180;5.812;2022-12-26T09:06:11;8.00;99.90
52849;DHT22;38714;53.180;5.812;2022-12-26T09:08:38;8.00;99.90
52849;DHT22;38714;53.180;5.812;2022-12-26T09:11:12;8.00;99.90
52849;DHT22;38714;53.180;5.812;2022-12-26T09:13:39;7.90;99.90
52849;DHT22;38714;53.180;5.812;2022-12-26T09:18:30;7.70;99.90
52849;DHT22;38714;53.180;5.812;2022-12-26T09:20:59;7.70;99.90
52849;DHT22;38714;53.180;5.812;2022-12-26T09:23:26;7.60;99.90
52849;DHT22;38714;53.180;5.812;2022-12-26T09:25:51;7.50;99.90
52849;DHT22;38714;53.180;5.812;2022-12-26T09:28:17;7.40;99.90
52849;DHT22;38714;53.180;5.812;2022-12-26T09:30:42;7.40;99.90
52849;DHT22;38714;53.180;5.812;2022-12-26T09:33:09;7.30;99.90
52849;DHT22;38714;53.180;5.812;2022-12-26T09:35:38;7.30;99.90
52849;DHT22;38714;53.180;5.812;2022-12-26T09:38:04;7.20;99.90
52849;DHT22;38714;53.180;5.812;2022-12-26T09:40:35;7.20;99.90
52849;DHT22;38714;53.180;5.812;2022-12-26T09:45:56;7.20;99.90
52849;DHT22;38714;53.180;5.812;2022-12-26T09:48:36;7.20;99.90
52849;DHT22;38714;53.180;5.812;2022-12-26T09:51:04;7.20;99.90
52849;DHT22;38714;53.180;5.812;2022-12-26T09:53:34;7.20;99.90
52849;DHT22;38714;53.180;5.812;2022-12-26T09:56:04;7.20;99.90
52849;DHT22;38714;53.180;5.812;2022-12-26T10:01:16;7.30;99.90
52849;DHT22;38714;53.180;5.812;2022-12-26T10:03:44;7.30;99.90
52849;DHT22;38714;53.180;5.812;2022-12-26T10:06:27;7.30;99.90
52849;DHT22;38714;53.180;5.812;2022-12-26T10:17:18;7.20;99.90
52849;DHT22;38714;53.180;5.812;2022-12-26T10:20:18;7.20;99.90
52849;DHT22;38714;53.180;5.812;2022-12-26T10:23:22;7.10;99.90
52849;DHT22;38714;53.180;5.812;2022-12-26T10:26:29;7.00;99.90
52849;DHT22;38714;53.180;5.812;2022-12-26T10:31:43;7.00;99.90
52849;DHT22;38714;53.180;5.812;2022-12-26T10:34:21;6.90;99.90
52849;DHT22;38714;53.180;5.812;2022-12-26T10:36:49;6.90;99.90
52849;DHT22;38714;53.180;5.812;2022-12-26T10:42:02;6.90;99.90
52849;DHT22;38714;53.180;5.812;2022-12-26T10:44:32;6.90;99.90
52849;DHT22;38714;53.180;5.812;2022-12-26T10:49:38;6.90;99.90
52849;DHT22;38714;53.180;5.812;2022-12-26T10:52:03;6.90;99.90
52849;DHT22;38714;53.180;5.812;2022-12-26T10:54:29;6.90;99.90
52849;DHT22;38714;53.180;5.812;2022-12-26T10:56:57;6.90;99.90
52849;DHT22;38714;53.180;5.812;2022-12-26T10:59:48;6.90;99.90
52849;DHT22;38714;53.180;5.812;2022-12-26T11:02:28;6.90;99.90
52849;DHT22;38714;53.180;5.812;2022-12-26T11:05:00;6.90;99.90
52849;DHT22;38714;53.180;5.812;2022-12-26T11:07:29;6.90;99.90
52849;DHT22;38714;53.180;5.812;2022-12-26T11:09:58;6.80;99.90
52849;DHT22;38714;53.180;5.812;2022-12-26T11:12:31;6.90;99.90
52849;DHT22;38714;53.180;5.812;2022-12-26T11:15:04;6.80;99.90
52849;DHT22;38714;53.180;5.812;2022-12-26T11:17:34;6.90;99.90
52849;DHT22;38714;53.180;5.812;2022-12-26T11:22:41;6.90;99.90
52849;DHT22;38714;53.180;5.812;2022-12-26T11:27:56;6.90;99.90
52849;DHT22;38714;53.180;5.812;2022-12-26T11:30:33;6.90;99.90
52849;DHT22;38714;53.180;5.812;2022-12-26T11:35:34;6.80;99.90
52849;DHT22;38714;53.180;5.812;2022-12-26T11:38:04;6.80;99.90
52849;DHT22;38714;53.180;5.812;2022-12-26T11:40:35;6.80;99.90
52849;DHT22;38714;53.180;5.812;2022-12-26T11:43:11;6.80;99.90
52849;DHT22;38714;53.180;5.812;2022-12-26T11:45:43;6.80;99.90
52849;DHT22;38714;53.180;5.812;2022-12-26T11:48:24;6.80;99.90
52849;DHT22;38714;53.180;5.812;2022-12-26T11:50:51;6.70;99.90
52849;DHT22;38714;53.180;5.812;2022-12-26T11:53:19;6.80;99.90
52849;DHT22;38714;53.180;5.812;2022-12-26T11:56:00;6.80;99.90
52849;DHT22;38714;53.180;5.812;2022-12-26T11:58:29;6.70;99.90
52849;DHT22;38714;53.180;5.812;2022-12-26T12:03:36;6.80;99.90
52849;DHT22;38714;53.180;5.812;2022-12-26T12:14:09;6.80;99.90
52849;DHT22;38714;53.180;5.812;2022-12-26T12:17:04;6.80;99.90
52849;DHT22;38714;53.180;5.812;2022-12-26T12:22:06;6.90;99.90
52849;DHT22;38714;53.180;5.812;2022-12-26T12:43:53;6.70;99.90
52849;DHT22;38714;53.180;5.812;2022-12-26T12:52:20;6.60;99.90
52849;DHT22;38714;53.180;5.812;2022-12-26T13:00:20;6.60;99.90
52849;DHT22;38714;53.180;5.812;2022-12-26T13:02:56;6.60;99.90
52849;DHT22;38714;53.180;5.812;2022-12-26T13:10:48;6.60;99.90
52849;DHT22;38714;53.180;5.812;2022-12-26T13:13:27;6.70;99.90
52849;DHT22;38714;53.180;5.812;2022-12-26T13:15:59;6.60;99.90
52849;DHT22;38714;53.180;5.812;2022-12-26T13:18:30;6.70;99.90
52849;DHT22;38714;53.180;5.812;2022-12-26T13:21:10;6.60;99.90
52849;DHT22;38714;53.180;5.812;2022-12-26T13:23:44;6.60;99.90
52849;DHT22;38714;53.180;5.812;2022-12-26T13:26:34;6.60;99.90
52849;DHT22;38714;53.180;5.812;2022-12-26T13:31:48;6.60;99.90
52849;DHT22;38714;53.180;5.812;2022-12-26T13:34:16;6.50;99.90
52849;DHT22;38714;53.180;5.812;2022-12-26T13:41:51;6.50;99.90
52849;DHT22;38714;53.180;5.812;2022-12-26T13:44:35;6.50;99.90
52849;DHT22;38714;53.180;5.812;2022-12-26T13:47:01;6.50;99.90
52849;DHT22;38714;53.180;5.812;2022-12-26T13:49:33;6.50;99.90
52849;DHT22;38714;53.180;5.812;2022-12-26T13:57:27;6.40;99.90
52849;DHT22;38714;53.180;5.812;2022-12-26T14:00:07;6.40;99.90
52849;DHT22;38714;53.180;5.812;2022-12-26T14:05:32;6.40;99.90
52849;DHT22;38714;53.180;5.812;2022-12-26T14:08:29;6.40;99.90
52849;DHT22;38714;53.180;5.812;2022-12-26T14:16:31;6.30;99.90
52849;DHT22;38714;53.180;5.812;2022-12-26T14:19:33;6.30;99.90
52849;DHT22;38714;53.180;5.812;2022-12-26T14:22:06;6.30;99.90
52849;DHT22;38714;53.180;5.812;2022-12-26T14:24:58;6.30;99.90
52849;DHT22;38714;53.180;5.812;2022-12-26T14:27:33;6.20;99.90
52849;DHT22;38714;53.180;5.812;2022-12-26T14:30:18;6.20;99.90
52849;DHT22;38714;53.180;5.812;2022-12-26T14:36:03;6.20;99.90
52849;DHT22;38714;53.180;5.812;2022-12-26T14:44:51;6.00;99.90
52849;DHT22;38714;53.180;5.812;2022-12-26T14:47:47;5.90;99.90
52849;DHT22;38714;53.180;5.812;2022-12-26T14:55:51;5.90;99.90
52849;DHT22;38714;53.180;5.812;2022-12-26T14:58:48;5.80;99.90
52849;DHT22;38714;53.180;5.812;2022-12-26T15:12:19;5.70;99.90
52849;DHT22;38714;53.180;5.812;2022-12-26T15:15:19;5.70;99.90
52849;DHT22;38714;53.180;5.812;2022-12-26T15:20:49;5.60;99.90
52849;DHT22;38714;53.180;5.812;2022-12-26T15:23:40;5.60;99.90
52849;DHT22;38714;53.180;5.812;2022-12-26T15:29:32;5.50;99.90
52849;DHT22;38714;53.180;5.812;2022-12-26T15:37:56;5.40;99.90
52849;DHT22;38714;53.180;5.812;2022-12-26T15:40:27;5.40;99.90
52849;DHT22;38714;53.180;5.812;2022-12-26T15:43:11;5.30;99.90
52849;DHT22;38714;53.180;5.812;2022-12-26T15:45:57;5.30;99.90
52849;DHT22;38714;53.180;5.812;2022-12-26T15:51:16;5.30;99.90
52849;DHT22;38714;53.180;5.812;2022-12-26T15:56:45;5.20;99.90
52849;DHT22;38714;53.180;5.812;2022-12-26T16:00:07;5.20;99.90
52849;DHT22;38714;53.180;5.812;2022-12-26T16:02:38;5.20;99.90
52849;DHT22;38714;53.180;5.812;2022-12-26T16:08:16;5.10;99.90
52849;DHT22;38714;53.180;5.812;2022-12-26T16:10:44;5.00;99.90
52849;DHT22;38714;53.180;5.812;2022-12-26T16:15:48;5.00;99.90
52849;DHT22;38714;53.180;5.812;2022-12-26T16:18:16;5.00;99.90
52849;DHT22;38714;53.180;5.812;2022-12-26T16:20:44;5.00;99.90
52849;DHT22;38714;53.180;5.812;2022-12-26T16:23:30;5.00;99.90
52849;DHT22;38714;53.180;5.812;2022-12-26T16:25:57;5.00;99.90
52849;DHT22;38714;53.180;5.812;2022-12-26T16:28:33;4.90;99.90
52849;DHT22;38714;53.180;5.812;2022-12-26T16:31:00;4.90;99.90
52849;DHT22;38714;53.180;5.812;2022-12-26T16:33:31;4.90;99.90
52849;DHT22;38714;53.180;5.812;2022-12-26T16:35:58;4.90;99.90
52849;DHT22;38714;53.180;5.812;2022-12-26T16:38:27;4.90;99.90
52849;DHT22;38714;53.180;5.812;2022-12-26T16:40:53;4.80;99.90
52849;DHT22;38714;53.180;5.812;2022-12-26T16:43:25;4.80;99.90
52849;DHT22;38714;53.180;5.812;2022-12-26T16:45:53;4.80;99.90
52849;DHT22;38714;53.180;5.812;2022-12-26T16:48:22;4.80;99.90
52849;DHT22;38714;53.180;5.812;2022-12-26T16:50:54;4.80;99.90
52849;DHT22;38714;53.180;5.812;2022-12-26T16:53:23;4.80;99.90
52849;DHT22;38714;53.180;5.812;2022-12-26T16:58:39;4.80;99.90
52849;DHT22;38714;53.180;5.812;2022-12-26T17:01:13;4.80;99.90
52849;DHT22;38714;53.180;5.812;2022-12-26T17:03:47;4.70;99.90
52849;DHT22;38714;53.180;5.812;2022-12-26T17:06:21;4.70;99.90
52849;DHT22;38714;53.180;5.812;2022-12-26T17:08:49;4.70;99.90
52849;DHT22;38714;53.180;5.812;2022-12-26T17:11:16;4.70;99.90
52849;DHT22;38714;53.180;5.812;2022-12-26T17:13:49;4.70;99.90
52849;DHT22;38714;53.180;5.812;2022-12-26T17:16:15;4.70;99.90
52849;DHT22;38714;53.180;5.812;2022-12-26T17:18:49;4.70;99.90
52849;DHT22;38714;53.180;5.812;2022-12-26T17:23:44;4.60;99.90
52849;DHT22;38714;53.180;5.812;2022-12-26T17:26:19;4.60;99.90
52849;DHT22;38714;53.180;5.812;2022-12-26T17:28:45;4.60;99.90
52849;DHT22;38714;53.180;5.812;2022-12-26T17:31:34;4.60;99.90
52849;DHT22;38714;53.180;5.812;2022-12-26T17:34:06;4.60;99.90
52849;DHT22;38714;53.180;5.812;2022-12-26T17:36:33;4.60;99.90
52849;DHT22;38714;53.180;5.812;2022-12-26T17:39:17;4.60;99.90
52849;DHT22;38714;53.180;5.812;2022-12-26T17:41:54;4.60;99.90
52849;DHT22;38714;53.180;5.812;2022-12-26T17:44:40;4.60;99.90
52849;DHT22;38714;53.180;5.812;2022-12-26T17:47:16;4.60;99.90
52849;DHT22;38714;53.180;5.812;2022-12-26T17:49:42;4.50;99.90
52849;DHT22;38714;53.180;5.812;2022-12-26T17:52:11;4.50;99.90
52849;DHT22;38714;53.180;5.812;2022-12-26T17:54:36;4.50;99.90
52849;DHT22;38714;53.180;5.812;2022-12-26T17:57:02;4.60;99.90
52849;DHT22;38714;53.180;5.812;2022-12-26T17:59:28;4.50;99.90
52849;DHT22;38714;53.180;5.812;2022-12-26T18:01:53;4.60;99.90
52849;DHT22;38714;53.180;5.812;2022-12-26T18:04:19;4.50;99.90
52849;DHT22;38714;53.180;5.812;2022-12-26T18:06:44;4.50;99.90
52849;DHT22;38714;53.180;5.812;2022-12-26T18:09:24;4.50;99.90
52849;DHT22;38714;53.180;5.812;2022-12-26T18:11:51;4.50;99.90
52849;DHT22;38714;53.180;5.812;2022-12-26T18:14:16;4.50;99.90
52849;DHT22;38714;53.180;5.812;2022-12-26T18:16:42;4.50;99.90
52849;DHT22;38714;53.180;5.812;2022-12-26T18:19:12;4.50;99.90
52849;DHT22;38714;53.180;5.812;2022-12-26T18:21:39;4.50;99.90
52849;DHT22;38714;53.180;5.812;2022-12-26T18:24:04;4.50;99.90
52849;DHT22;38714;53.180;5.812;2022-12-26T18:26:30;4.50;99.90
52849;DHT22;38714;53.180;5.812;2022-12-26T18:28:56;4.50;99.90
52849;DHT22;38714;53.180;5.812;2022-12-26T18:31:22;4.50;99.90
52849;DHT22;38714;53.180;5.812;2022-12-26T18:33:48;4.50;99.90
52849;DHT22;38714;53.180;5.812;2022-12-26T18:36:15;4.50;99.90
52849;DHT22;38714;53.180;5.812;2022-12-26T18:38:41;4.50;99.90
52849;DHT22;38714;53.180;5.812;2022-12-26T18:41:18;4.50;99.90
52849;DHT22;38714;53.180;5.812;2022-12-26T18:43:44;4.50;99.90
52849;DHT22;38714;53.180;5.812;2022-12-26T18:46:20;4.50;99.90
52849;DHT22;38714;53.180;5.812;2022-12-26T18:48:47;4.50;99.90
52849;DHT22;38714;53.180;5.812;2022-12-26T18:51:13;4.50;99.90
52849;DHT22;38714;53.180;5.812;2022-12-26T18:53:39;4.50;99.90
52849;DHT22;38714;53.180;5.812;2022-12-26T18:56:05;4.50;99.90
52849;DHT22;38714;53.180;5.812;2022-12-26T18:58:31;4.50;99.90
52849;DHT22;38714;53.180;5.812;2022-12-26T19:00:59;4.40;99.90
52849;DHT22;38714;53.180;5.812;2022-12-26T19:03:25;4.40;99.90
52849;DHT22;38714;53.180;5.812;2022-12-26T19:05:51;4.40;99.90
52849;DHT22;38714;53.180;5.812;2022-12-26T19:08:16;4.40;99.90
52849;DHT22;38714;53.180;5.812;2022-12-26T19:10:42;4.30;99.90
52849;DHT22;38714;53.180;5.812;2022-12-26T19:13:09;4.40;99.90
52849;DHT22;38714;53.180;5.812;2022-12-26T19:15:35;4.30;99.90
52849;DHT22;38714;53.180;5.812;2022-12-26T19:18:02;4.30;99.90
52849;DHT22;38714;53.180;5.812;2022-12-26T19:20:28;4.30;99.90
52849;DHT22;38714;53.180;5.812;2022-12-26T19:22:54;4.30;99.90
52849;DHT22;38714;53.180;5.812;2022-12-26T19:25:23;4.30;99.90
52849;DHT22;38714;53.180;5.812;2022-12-26T19:27:49;4.30;99.90